createdAt,value
2024-01-06T00:01:14.712Z,100328.72
2024-01-06T00:03:43.462Z,100327.38
2024-01-06T00:06:15.675Z,100331.99
2024-01-06T00:08:44.609Z,100340.15
2024-01-06T00:11:13.361Z,100343.91
2024-01-06T00:13:42.114Z,100349.98
2024-01-06T00:16:10.519Z,100345.33
2024-01-06T00:18:39.037Z,100358.58
2024-01-06T00:21:07.570Z,100353.81
2024-01-06T00:23:36.099Z,100347.34
2024-01-06T00:26:05.375Z,100345.07
2024-01-06T00:28:34.106Z,100353.70
2024-01-06T00:31:03.052Z,100348.56
2024-01-06T00:33:32.606Z,100361.84
2024-01-06T00:36:01.895Z,100364.67
2024-01-06T00:38:31.144Z,100367.20
2024-01-06T00:41:01.169Z,100370.41
2024-01-06T00:43:30.370Z,100375.17
2024-01-06T00:45:59.143Z,100379.23
2024-01-06T00:48:28.604Z,100384.62
2024-01-06T00:50:57.908Z,100382.84
2024-01-06T00:53:27.014Z,100396.28
2024-01-06T00:55:55.615Z,100397.36
2024-01-06T00:58:24.053Z,100389.31
2024-01-06T01:00:52.871Z,100389.47
2024-01-06T01:03:22.118Z,100388.27
2024-01-06T01:05:50.888Z,100375.61
2024-01-06T01:08:20.041Z,100380.86
2024-01-06T01:10:48.720Z,100370.76
2024-01-06T01:13:17.579Z,100358.09
2024-01-06T01:15:48.061Z,100348.48
2024-01-06T01:18:16.980Z,100345.94
2024-01-06T01:20:46.129Z,100345.45
2024-01-06T01:23:15.247Z,100331.33
2024-01-06T01:25:44.900Z,100335.30
2024-01-06T01:28:14.464Z,100331.29
2024-01-06T01:30:43.561Z,100333.86
2024-01-06T01:33:12.360Z,100326.43
2024-01-06T01:35:40.909Z,100321.80
2024-01-06T01:38:09.720Z,100310.11
2024-01-06T01:40:38.201Z,100301.08
2024-01-06T01:43:07.673Z,100300.84
2024-01-06T01:45:36.537Z,100295.84
2024-01-06T01:48:06.257Z,100294.39
2024-01-06T01:50:35.007Z,100297.07
2024-01-06T01:53:03.651Z,100295.26
2024-01-06T01:55:32.097Z,100307.82
2024-01-06T01:58:00.457Z,100298.31
2024-01-06T02:00:29.351Z,100291.48
2024-01-06T02:02:58.052Z,100290.39
2024-01-06T02:05:26.708Z,100298.81
2024-01-06T02:07:55.705Z,100305.88
2024-01-06T02:10:24.398Z,100302.97
2024-01-06T02:12:53.267Z,100299.91
2024-01-06T02:15:22.882Z,100301.63
2024-01-06T02:17:51.425Z,100288.09
2024-01-06T02:20:20.669Z,100283.58
2024-01-06T02:22:49.104Z,100283.45
2024-01-06T02:25:17.740Z,100284.67
2024-01-06T02:27:46.708Z,100276.98
2024-01-06T02:30:15.317Z,100284.44
2024-01-06T02:32:43.896Z,100282.23
2024-01-06T02:35:12.509Z,100276.87
2024-01-06T02:37:41.096Z,100265.64
2024-01-06T02:40:11.203Z,100266.50
2024-01-06T02:42:39.838Z,100262.36
2024-01-06T02:45:10.441Z,100253.69
2024-01-06T02:47:39.075Z,100254.55
2024-01-06T02:50:09.274Z,100260.28
2024-01-06T02:52:38.023Z,100246.38
2024-01-06T02:55:07.881Z,100247.72
2024-01-06T02:57:36.767Z,100257.84
2024-01-06T03:00:07.583Z,100252.36
2024-01-06T03:02:38.599Z,100257.97
2024-01-06T03:05:08.394Z,100250.77
2024-01-06T03:07:37.008Z,100264.35
2024-01-06T03:10:06.436Z,100261.55
2024-01-06T03:12:35.385Z,100259.71
2024-01-06T03:15:04.750Z,100252.27
2024-01-06T03:17:33.980Z,100246.41
2024-01-06T03:20:02.697Z,100239.58
2024-01-06T03:22:31.253Z,100242.02
2024-01-06T03:24:59.869Z,100229.32
2024-01-06T03:27:28.310Z,100222.36
2024-01-06T03:29:56.836Z,100226.27
2024-01-06T03:32:25.459Z,100225.28
2024-01-06T03:34:53.903Z,100239.45
2024-01-06T03:37:23.198Z,100242.01
2024-01-06T03:39:51.660Z,100234.68
2024-01-06T03:42:20.008Z,100224.80
2024-01-06T03:44:48.295Z,100242.73
2024-01-06T03:47:17.058Z,100233.95
2024-01-06T03:49:45.490Z,100226.38
2024-01-06T03:52:15.417Z,100226.63
2024-01-06T03:54:44.294Z,100226.63
2024-01-06T03:57:13.039Z,100232.36
2024-01-06T03:59:41.423Z,100236.76
2024-01-06T04:02:09.949Z,100233.45
2024-01-06T04:04:38.480Z,100237.00
2024-01-06T04:07:07.766Z,100249.20
2024-01-06T04:09:36.489Z,100252.98
2024-01-06T04:12:07.753Z,100253.72
2024-01-06T04:14:36.080Z,100253.95
2024-01-06T04:17:05.480Z,100240.28
2024-01-06T04:19:34.179Z,100229.17
2024-01-06T04:22:02.762Z,100217.20
2024-01-06T04:24:31.795Z,100201.82
2024-01-06T04:27:00.468Z,100198.41
2024-01-06T04:29:29.018Z,100201.22
2024-01-06T04:31:58.577Z,100182.90
2024-01-06T04:34:27.582Z,100207.20
2024-01-06T04:36:56.539Z,100209.52
2024-01-06T04:39:25.172Z,100214.41
2024-01-06T04:41:53.677Z,100216.11
2024-01-06T04:44:23.050Z,100240.05
2024-01-06T04:46:51.573Z,100235.16
2024-01-06T04:49:20.341Z,100236.98
2024-01-06T04:51:49.744Z,100227.22
2024-01-06T04:54:18.394Z,100227.95
2024-01-06T04:56:46.828Z,100226.00
2024-01-06T04:59:15.316Z,100223.06
2024-01-06T05:01:44.040Z,100218.54
2024-01-06T05:04:12.917Z,100210.72
2024-01-06T05:06:41.517Z,100205.59
2024-01-06T05:09:11.174Z,100213.52
2024-01-06T05:11:39.589Z,100213.03
2024-01-06T05:14:08.060Z,100226.34
2024-01-06T05:16:36.741Z,100211.92
2024-01-06T05:19:05.411Z,100211.31
2024-01-06T05:21:34.009Z,100210.58
2024-01-06T05:24:03.120Z,100209.11
2024-01-06T05:26:31.846Z,100210.94
2024-01-06T05:29:00.255Z,100202.76
2024-01-06T05:31:28.983Z,100200.56
2024-01-06T05:33:57.969Z,100207.64
2024-01-06T05:36:26.583Z,100211.18
2024-01-06T05:38:55.087Z,100210.56
2024-01-06T05:41:23.820Z,100200.05
2024-01-06T05:43:52.408Z,100210.55
2024-01-06T05:46:27.153Z,100201.51
2024-01-06T05:48:57.271Z,100201.02
2024-01-06T05:51:26.192Z,100182.70
2024-01-06T05:53:55.498Z,100182.97
2024-01-06T05:56:25.914Z,100167.33
2024-01-06T05:58:54.797Z,100169.26
2024-01-06T06:01:23.757Z,100160.47
2024-01-06T06:03:53.737Z,100170.61
2024-01-06T06:06:22.547Z,100173.66
2024-01-06T06:08:51.842Z,100175.13
2024-01-06T06:11:21.004Z,100167.33
2024-01-06T06:13:49.906Z,100167.70
2024-01-06T06:16:19.097Z,100155.34
2024-01-06T06:18:48.481Z,100137.38
2024-01-06T06:21:17.164Z,100127.48
2024-01-06T06:23:45.857Z,100127.98
2024-01-06T06:26:14.895Z,100132.14
2024-01-06T06:28:44.220Z,100122.37
2024-01-06T06:31:13.223Z,100127.38
2024-01-06T06:33:43.419Z,100125.78
2024-01-06T06:36:13.483Z,100128.47
2024-01-06T06:38:42.597Z,100129.19
2024-01-06T06:41:12.240Z,100135.91
2024-01-06T06:43:41.240Z,100123.81
2024-01-06T06:46:10.515Z,100117.59
2024-01-06T06:48:41.113Z,100113.78
2024-01-06T06:51:11.659Z,100113.89
2024-01-06T06:53:40.498Z,100112.16
2024-01-06T06:56:09.067Z,100112.64
2024-01-06T06:58:37.586Z,100113.37
2024-01-06T07:01:07.667Z,100110.81
2024-01-06T07:03:36.862Z,100113.62
2024-01-06T07:06:06.013Z,100110.94
2024-01-06T07:08:34.714Z,100123.39
2024-01-06T07:11:03.489Z,100124.48
2024-01-06T07:13:32.236Z,100131.80
2024-01-06T07:16:11.512Z,100133.73
2024-01-06T07:18:31.616Z,100136.66
2024-01-06T07:21:00.061Z,100141.89
2024-01-06T07:23:28.946Z,100135.17
2024-01-06T07:25:57.441Z,100136.88
2024-01-06T07:28:26.186Z,100149.70
2024-01-06T07:30:55.948Z,100143.70
2024-01-06T07:33:25.892Z,100143.31
2024-01-06T07:35:54.597Z,100145.73
2024-01-06T07:38:23.473Z,100142.06
2024-01-06T07:40:52.619Z,100138.03
2024-01-06T07:43:21.269Z,100138.27
2024-01-06T07:45:50.108Z,100136.30
2024-01-06T07:48:18.733Z,100124.55
2024-01-06T07:50:48.883Z,100124.91
2024-01-06T07:53:17.956Z,100124.64
2024-01-06T07:55:46.466Z,100129.76
2024-01-06T07:58:15.128Z,100119.72
2024-01-06T08:00:44.148Z,100115.06
2024-01-06T08:03:13.203Z,100120.08
2024-01-06T08:05:42.463Z,100121.02
2024-01-06T08:08:13.396Z,100112.68
2024-01-06T08:10:42.407Z,100108.02
2024-01-06T08:13:11.254Z,100115.10
2024-01-06T08:15:39.820Z,100117.52
2024-01-06T08:18:09.108Z,100107.84
2024-01-06T08:20:38.360Z,100111.61
2024-01-06T08:23:07.407Z,100113.04
2024-01-06T08:25:37.433Z,100110.57
2024-01-06T08:28:07.143Z,100113.84
2024-01-06T08:30:36.279Z,100117.75
2024-01-06T08:33:06.155Z,100098.41
2024-01-06T08:35:36.804Z,100116.62
2024-01-06T08:38:05.400Z,100125.91
2024-01-06T08:40:34.967Z,100132.51
2024-01-06T08:43:04.938Z,100122.09
2024-01-06T08:45:34.219Z,100113.89
2024-01-06T08:48:03.486Z,100125.14
2024-01-06T08:50:32.682Z,100116.22
2024-01-06T08:53:01.820Z,100114.73
2024-01-06T08:55:31.062Z,100109.71
2024-01-06T08:58:00.355Z,100108.45
2024-01-06T09:00:29.394Z,100107.33
2024-01-06T09:02:58.388Z,100111.72
2024-01-06T09:05:27.076Z,100112.39
2024-01-06T09:07:56.477Z,100117.47
2024-01-06T09:10:25.125Z,100106.56
2024-01-06T09:12:54.006Z,100102.74
2024-01-06T09:15:22.777Z,100098.92
2024-01-06T09:17:51.417Z,100088.15
2024-01-06T09:20:22.112Z,100090.48
2024-01-06T09:22:50.770Z,100095.24
2024-01-06T09:25:19.141Z,100100.84
2024-01-06T09:27:47.767Z,100095.67
2024-01-06T09:30:17.157Z,100078.24
2024-01-06T09:32:45.777Z,100068.18
2024-01-06T09:35:15.601Z,100082.72
2024-01-06T09:37:44.995Z,100084.36
2024-01-06T09:40:14.936Z,100080.53
2024-01-06T09:42:44.572Z,100076.21
2024-01-06T09:45:13.731Z,100062.59
2024-01-06T09:47:42.711Z,100061.11
2024-01-06T09:50:11.818Z,100048.98
2024-01-06T09:52:45.171Z,100037.64
2024-01-06T09:55:14.435Z,100037.56
2024-01-06T09:57:42.998Z,100040.25
2024-01-06T10:00:12.774Z,100033.17
2024-01-06T10:02:41.619Z,100029.41
2024-01-06T10:05:11.397Z,100026.22
2024-01-06T10:08:02.065Z,100008.35
2024-01-06T10:10:35.971Z,100005.30
2024-01-06T10:13:05.929Z,99998.98
2024-01-06T10:15:37.070Z,100002.61
2024-01-06T10:18:07.422Z,100006.65
2024-01-06T10:20:36.172Z,99998.92
2024-01-06T10:23:09.900Z,99996.58
2024-01-06T10:25:38.599Z,100004.52
2024-01-06T10:28:07.658Z,100004.88
2024-01-06T10:30:39.000Z,100006.58
2024-01-06T10:33:12.153Z,100001.05
2024-01-06T10:35:41.633Z,100006.65
2024-01-06T10:38:11.661Z,100005.94
2024-01-06T10:40:40.672Z,99998.84
2024-01-06T10:43:09.621Z,99995.45
2024-01-06T10:45:38.466Z,99987.36
2024-01-06T10:48:08.522Z,99985.87
2024-01-06T10:50:37.421Z,99976.80
2024-01-06T10:53:07.779Z,99962.83
2024-01-06T10:55:38.620Z,99965.73
2024-01-06T10:58:08.310Z,99966.59
2024-01-06T11:00:37.439Z,99959.84
2024-01-06T11:03:06.851Z,99961.05
2024-01-06T11:05:36.783Z,99953.67
2024-01-06T11:08:06.896Z,99956.22
2024-01-06T11:10:37.398Z,99942.81
2024-01-06T11:13:18.428Z,99933.73
2024-01-06T11:15:52.898Z,99933.95
2024-01-06T11:18:41.716Z,99936.00
2024-01-06T11:21:22.066Z,99933.30
2024-01-06T11:24:18.059Z,99938.34
2024-01-06T11:26:52.579Z,99935.64
2024-01-06T11:29:21.701Z,99941.03
2024-01-06T11:32:31.756Z,99935.64
2024-01-06T11:35:12.374Z,99929.61
2024-01-06T11:37:47.029Z,99944.50
2024-01-06T11:40:25.464Z,99934.56
2024-01-06T11:43:10.303Z,99940.66
2024-01-06T11:45:44.921Z,99943.71
2024-01-06T11:48:14.577Z,99940.02
2024-01-06T11:50:45.548Z,99947.11
2024-01-06T11:53:14.279Z,99950.02
2024-01-06T11:55:43.708Z,99942.28
2024-01-06T11:58:12.367Z,99947.06
2024-01-06T12:00:42.374Z,99949.88
2024-01-06T12:03:11.099Z,99954.98
2024-01-06T12:05:39.710Z,99954.69
2024-01-06T12:08:09.196Z,99953.19
2024-01-06T12:10:38.702Z,99952.69
2024-01-06T12:13:10.838Z,99955.39
2024-01-06T12:15:40.247Z,99953.39
2024-01-06T12:18:11.413Z,99960.98
2024-01-06T12:20:39.875Z,99967.23
2024-01-06T12:23:08.577Z,99978.52
2024-01-06T12:25:40.185Z,99975.67
2024-01-06T12:28:08.263Z,99950.41
2024-01-06T12:30:39.205Z,99941.81
2024-01-06T12:33:08.374Z,99946.71
2024-01-06T12:35:37.201Z,99952.75
2024-01-06T12:38:08.628Z,99974.82
2024-01-06T12:40:38.250Z,99978.87
2024-01-06T12:43:07.055Z,99975.67
2024-01-06T12:45:36.127Z,99972.97
2024-01-06T12:48:05.949Z,99963.19
2024-01-06T12:50:34.993Z,99972.13
2024-01-06T12:53:04.457Z,99970.28
2024-01-06T12:55:33.536Z,99979.57
2024-01-06T12:58:05.345Z,99967.64
2024-01-06T13:00:42.901Z,99958.26
2024-01-06T13:03:14.363Z,99959.96
2024-01-06T13:05:43.420Z,99956.91
2024-01-06T13:08:13.523Z,99954.51
2024-01-06T13:10:42.390Z,99951.52
2024-01-06T13:13:11.094Z,99957.41
2024-01-06T13:15:40.022Z,99952.37
2024-01-06T13:18:08.653Z,99954.21
2024-01-06T13:20:39.186Z,99955.77
2024-01-06T13:23:08.112Z,99956.27
2024-01-06T13:25:37.164Z,99968.41
2024-01-06T13:28:06.991Z,99967.55
2024-01-06T13:30:35.646Z,99971.75
2024-01-06T13:33:05.421Z,99975.44
2024-01-06T13:35:34.796Z,99972.39
2024-01-06T13:38:05.137Z,99979.28
2024-01-06T13:40:33.981Z,99981.13
2024-01-06T13:43:04.516Z,99990.71
2024-01-06T13:45:33.241Z,99996.95
2024-01-06T13:48:01.755Z,99994.91
2024-01-06T13:50:31.771Z,99990.01
2024-01-06T13:53:02.165Z,99991.70
2024-01-06T13:55:31.737Z,99987.16
2024-01-06T13:58:00.608Z,99989.86
2024-01-06T14:00:30.238Z,99984.11
2024-01-06T14:02:59.658Z,99983.97
2024-01-06T14:05:28.721Z,99982.91
2024-01-06T14:07:57.980Z,99975.67
2024-01-06T14:10:27.261Z,99981.56
2024-01-06T14:12:55.883Z,99984.11
2024-01-06T14:15:24.759Z,99982.27
2024-01-06T14:17:53.823Z,99981.92
2024-01-06T14:20:22.474Z,99981.77
2024-01-06T14:22:51.827Z,99983.41
2024-01-06T14:25:20.491Z,99973.13
2024-01-06T14:27:49.230Z,99978.81
2024-01-06T14:30:18.525Z,99968.31
2024-01-06T14:32:47.814Z,99966.11
2024-01-06T14:35:17.164Z,99968.31
2024-01-06T14:37:46.623Z,99965.12
2024-01-06T14:40:15.978Z,99957.97
2024-01-06T14:42:45.056Z,99965.64
2024-01-06T14:45:15.694Z,99974.72
2024-01-06T14:47:49.012Z,99975.58
2024-01-06T14:50:18.463Z,99976.63
2024-01-06T14:52:48.407Z,99980.03
2024-01-06T14:55:18.515Z,99986.63
2024-01-06T14:57:49.648Z,99982.59
2024-01-06T15:00:25.266Z,99978.05
2024-01-06T15:03:03.700Z,99980.88
2024-01-06T15:05:34.691Z,99967.90
2024-01-06T15:08:04.093Z,99976.63
2024-01-06T15:10:33.029Z,99971.88
2024-01-06T15:13:02.049Z,99970.18
2024-01-06T15:15:38.570Z,99974.44
2024-01-06T15:18:13.850Z,99978.54
2024-01-06T15:20:44.004Z,99981.36
2024-01-06T15:23:12.438Z,99981.42
2024-01-06T15:25:42.697Z,99978.08
2024-01-06T15:28:11.131Z,99975.88
2024-01-06T15:30:39.730Z,99976.23
2024-01-06T15:33:08.221Z,99971.83
2024-01-06T15:35:36.609Z,99973.89
2024-01-06T15:38:06.502Z,99975.99
2024-01-06T15:40:37.723Z,99983.59
2024-01-06T15:43:08.292Z,99985.44
2024-01-06T15:45:36.871Z,99983.03
2024-01-06T15:48:08.773Z,99989.07
2024-01-06T15:50:37.322Z,99996.95
2024-01-06T15:53:05.760Z,99999.80
2024-01-06T15:55:34.249Z,99992.56
2024-01-06T15:58:02.792Z,99977.23
2024-01-06T16:00:32.448Z,99962.89
2024-01-06T16:03:01.689Z,99951.41
2024-01-06T16:05:30.247Z,99958.49
2024-01-06T16:07:59.285Z,99968.28
2024-01-06T16:10:30.269Z,99969.92
2024-01-06T16:13:00.544Z,99972.92
2024-01-06T16:15:30.143Z,99990.59
2024-01-06T16:17:58.654Z,99985.84
2024-01-06T16:20:27.427Z,99995.78
2024-01-06T16:22:57.559Z,99986.27
2024-01-06T16:25:26.362Z,99996.36
2024-01-06T16:27:55.732Z,99996.36
2024-01-06T16:30:24.251Z,99994.16
2024-01-06T16:32:52.957Z,99996.21
2024-01-06T16:35:21.788Z,99995.86
2024-01-06T16:37:51.812Z,99992.31
2024-01-06T16:40:20.567Z,99997.99
2024-01-06T16:42:51.562Z,99995.80
2024-01-06T16:45:20.320Z,99987.50
2024-01-06T16:47:49.830Z,99988.39
2024-01-06T16:50:18.592Z,99988.69
2024-01-06T16:52:48.082Z,99991.67
2024-01-06T16:55:17.108Z,99996.20
2024-01-06T16:57:46.035Z,99999.41
2024-01-06T17:00:16.458Z,99996.35
2024-01-06T17:02:45.308Z,99997.20
2024-01-06T17:05:15.079Z,100002.95
2024-01-06T17:07:45.588Z,99997.06
2024-01-06T17:10:16.288Z,100006.99
2024-01-06T17:12:45.427Z,100000.89
2024-01-06T17:15:14.470Z,99998.91
2024-01-06T17:17:43.876Z,99997.41
2024-01-06T17:20:13.816Z,100000.89
2024-01-06T17:22:43.508Z,100003.37
2024-01-06T17:25:15.947Z,100014.16
2024-01-06T17:27:47.893Z,100019.05
2024-01-06T17:30:18.480Z,100011.46
2024-01-06T17:32:47.390Z,100019.55
2024-01-06T17:35:16.415Z,100021.19
2024-01-06T17:37:45.243Z,100015.94
2024-01-06T17:40:14.700Z,100018.77
2024-01-06T17:42:43.521Z,100016.72
2024-01-06T17:45:15.696Z,100013.67
2024-01-06T17:47:46.200Z,100018.34
2024-01-06T17:50:15.828Z,100018.14
2024-01-06T17:52:45.332Z,100027.50
2024-01-06T17:55:15.137Z,100028.98
2024-01-06T17:57:45.063Z,100032.81
2024-01-06T18:00:16.212Z,100029.27
2024-01-06T18:02:47.238Z,100024.09
2024-01-06T18:05:16.719Z,100018.77
2024-01-06T18:07:45.766Z,100010.47
2024-01-06T18:10:16.105Z,100016.00
2024-01-06T18:12:44.616Z,100017.84
2024-01-06T18:15:13.212Z,100025.07
2024-01-06T18:17:42.846Z,100028.89
2024-01-06T18:20:13.027Z,100023.65
2024-01-06T18:22:43.431Z,100030.73
2024-01-06T18:25:13.643Z,100037.61
2024-01-06T18:27:42.684Z,100045.83
2024-01-06T18:30:12.841Z,100044.13
2024-01-06T18:32:42.866Z,100049.66
2024-01-06T18:35:12.898Z,100056.91
2024-01-06T18:37:42.289Z,100056.69
2024-01-06T18:40:13.004Z,100057.81
2024-01-06T18:42:43.467Z,100059.08
2024-01-06T18:45:13.724Z,100050.92
2024-01-06T18:47:45.111Z,100050.34
2024-01-06T18:50:16.359Z,100057.98
2024-01-06T18:52:50.102Z,100069.88
2024-01-06T18:55:20.018Z,100071.50
2024-01-06T18:57:50.260Z,100077.37
2024-01-06T19:00:20.246Z,100080.34
2024-01-06T19:02:52.481Z,100088.55
2024-01-06T19:05:24.984Z,100096.04
2024-01-06T19:07:55.671Z,100098.78
2024-01-06T19:10:25.126Z,100098.33
2024-01-06T19:12:55.026Z,100092.86
2024-01-06T19:15:24.934Z,100083.71
2024-01-06T19:17:54.654Z,100092.27
2024-01-06T19:20:24.345Z,100091.16
2024-01-06T19:23:02.425Z,100091.52
2024-01-06T19:25:24.237Z,100094.47
2024-01-06T19:27:53.569Z,100087.16
2024-01-06T19:30:27.162Z,100085.70
2024-01-06T19:32:56.165Z,100086.81
2024-01-06T19:35:24.779Z,100097.84
2024-01-06T19:37:53.774Z,100101.06
2024-01-06T19:40:22.353Z,100115.85
2024-01-06T19:42:52.861Z,100106.93
2024-01-06T19:45:21.656Z,100103.03
2024-01-06T19:47:50.515Z,100099.22
2024-01-06T19:50:20.312Z,100098.73
2024-01-06T19:52:48.878Z,100108.37
2024-01-06T19:55:17.676Z,100114.87
2024-01-06T19:57:46.257Z,100113.07
2024-01-06T20:00:16.873Z,100113.20
2024-01-06T20:02:47.425Z,100123.01
2024-01-06T20:05:17.034Z,100124.98
2024-01-06T20:07:46.161Z,100122.91
2024-01-06T20:10:15.162Z,100125.11
2024-01-06T20:12:45.185Z,100134.03
2024-01-06T20:15:14.583Z,100135.37
2024-01-06T20:17:43.813Z,100137.47
2024-01-06T20:20:13.403Z,100148.26
2024-01-06T20:22:42.178Z,100158.06
2024-01-06T20:25:12.726Z,100140.97
2024-01-06T20:27:42.181Z,100148.08
2024-01-06T20:30:13.751Z,100151.16
2024-01-06T20:32:43.297Z,100156.43
2024-01-06T20:35:12.483Z,100149.34
2024-01-06T20:37:41.230Z,100153.74
2024-01-06T20:40:11.292Z,100146.66
2024-01-06T20:42:40.195Z,100155.21
2024-01-06T20:45:30.993Z,100148.27
2024-01-06T20:48:00.426Z,100156.33
2024-01-06T20:50:29.842Z,100166.58
2024-01-06T20:52:59.174Z,100175.51
2024-01-06T20:55:27.967Z,100171.26
2024-01-06T20:57:57.187Z,100173.34
2024-01-06T21:00:26.672Z,100175.30
2024-01-06T21:02:55.746Z,100177.14
2024-01-06T21:05:24.665Z,100169.33
2024-01-06T21:07:53.554Z,100164.45
2024-01-06T21:10:22.861Z,100167.01
2024-01-06T21:12:52.478Z,100165.91
2024-01-06T21:15:23.123Z,100158.73
2024-01-06T21:17:51.903Z,100156.31
2024-01-06T21:20:22.202Z,100164.98
2024-01-06T21:22:51.291Z,100176.83
2024-01-06T21:25:21.961Z,100182.92
2024-01-06T21:27:52.451Z,100196.35
2024-01-06T21:30:22.607Z,100203.80
2024-01-06T21:32:53.691Z,100200.99
2024-01-06T21:35:22.325Z,100198.06
2024-01-06T21:37:51.320Z,100199.42
2024-01-06T21:40:21.087Z,100196.98
2024-01-06T21:42:49.752Z,100214.31
2024-01-06T21:45:19.391Z,100202.60
2024-01-06T21:47:49.071Z,100208.19
2024-01-06T21:50:18.434Z,100207.70
2024-01-06T21:52:47.313Z,100215.27
2024-01-06T21:55:15.665Z,100211.88
2024-01-06T21:57:44.630Z,100212.24
2024-01-06T22:00:19.773Z,100207.58
2024-01-06T22:02:52.283Z,100201.75
2024-01-06T22:05:21.634Z,100216.87
2024-01-06T22:07:50.982Z,100212.94
2024-01-06T22:10:21.446Z,100213.43
2024-01-06T22:12:51.401Z,100210.66
2024-01-06T22:15:20.725Z,100222.98
2024-01-06T22:17:50.478Z,100213.95
2024-01-06T22:20:19.674Z,100210.16
2024-01-06T22:22:48.247Z,100216.02
2024-01-06T22:25:17.147Z,100204.89
2024-01-06T22:27:45.712Z,100217.86
2024-01-06T22:30:17.042Z,100218.06
2024-01-06T22:32:47.565Z,100222.09
2024-01-06T22:35:17.489Z,100219.66
2024-01-06T22:37:49.223Z,100238.08
2024-01-06T22:40:19.878Z,100232.47
2024-01-06T22:42:48.412Z,100235.27
2024-01-06T22:45:16.982Z,100236.86
2024-01-06T22:47:45.661Z,100242.09
2024-01-06T22:50:15.821Z,100251.86
2024-01-06T22:52:44.395Z,100252.22
2024-01-06T22:55:12.980Z,100257.22
2024-01-06T22:57:41.443Z,100249.90
2024-01-06T23:00:15.802Z,100260.52
2024-01-06T23:02:45.209Z,100258.07
2024-01-06T23:05:13.739Z,100257.58
2024-01-06T23:07:42.253Z,100254.77
2024-01-06T23:10:12.578Z,100259.28
2024-01-06T23:12:41.099Z,100260.01
2024-01-06T23:15:11.258Z,100258.91
2024-01-06T23:17:39.933Z,100268.55
2024-01-06T23:20:09.786Z,100268.91
2024-01-06T23:22:38.456Z,100264.27
2024-01-06T23:25:08.740Z,100261.22
2024-01-06T23:27:37.208Z,100265.36
2024-01-06T23:30:07.229Z,100281.71
2024-01-06T23:32:37.190Z,100285.00
2024-01-06T23:35:08.212Z,100288.05
2024-01-06T23:37:41.043Z,100293.53
2024-01-06T23:40:12.330Z,100292.43
2024-01-06T23:42:41.845Z,100291.58
2024-01-06T23:45:12.018Z,100296.94
2024-01-06T23:47:42.667Z,100300.36
2024-01-06T23:50:12.583Z,100297.67
2024-01-06T23:52:41.256Z,100299.86
2024-01-06T23:55:11.620Z,100300.83
2024-01-06T23:57:40.386Z,100313.41
